Time;durP1;ratioP1;P1;durP2;ratioP2;P2;SDS_P1;SDS_P2;PMS_P1;PMS_P2;Temp;Humidity;BMP_temperature;BMP_pressure;BME280_temperature;BME280_humidity;BME280_pressure;Samples;Min_cycle;Max_cycle;Signal;HPM_P1;HPM_P2
2022/07/19 00:00:21;;;;;;;9.17;5.93;;;20.20;53.90;;;;;;5204307;28;20188;-51
2022/07/19 00:02:52;;;;;;;5.20;4.80;;;20.20;54.20;;;;;;5222375;28;20179;-50
2022/07/19 00:05:23;;;;;;;7.97;5.07;;;20.10;54.30;;;;;;5206657;28;20446;-51
2022/07/19 00:07:53;;;;;;;9.53;5.53;;;20.10;54.30;;;;;;5222414;28;20460;-52
2022/07/19 00:10:24;;;;;;;10.20;5.60;;;20.10;54.30;;;;;;5227100;28;20198;-50
2022/07/19 00:12:54;;;;;;;8.70;5.93;;;20.10;54.10;;;;;;5179079;28;20593;-50
2022/07/19 00:15:25;;;;;;;10.13;5.27;;;20.00;54.00;;;;;;5211216;28;20190;-54
2022/07/19 00:17:56;;;;;;;5.43;4.63;;;20.00;54.30;;;;;;5209520;28;20191;-51
2022/07/19 00:20:26;;;;;;;9.67;5.07;;;20.00;54.10;;;;;;5213476;28;20207;-52
2022/07/19 00:22:57;;;;;;;11.60;5.40;;;20.00;54.30;;;;;;5226407;28;20186;-50
2022/07/19 00:25:28;;;;;;;9.23;5.43;;;20.00;54.60;;;;;;5219290;28;20227;-49
2022/07/19 00:28:00;;;;;;;6.20;4.67;;;20.00;54.60;;;;;;5203488;28;20221;-50
2022/07/19 00:30:30;;;;;;;9.73;5.80;;;19.90;55.30;;;;;;5212413;28;20982;-51
2022/07/19 00:33:04;;;;;;;6.47;5.30;;;19.90;54.80;;;;;;5214970;28;20449;-50
2022/07/19 00:35:35;;;;;;;7.20;4.70;;;19.90;54.90;;;;;;5205226;28;20194;-50
2022/07/19 00:38:08;;;;;;;6.93;5.10;;;19.80;55.00;;;;;;5199088;28;20441;-50
2022/07/19 00:40:43;;;;;;;8.03;4.93;;;19.80;55.00;;;;;;5208403;28;20556;-51
2022/07/19 00:43:13;;;;;;;6.83;5.13;;;19.80;55.10;;;;;;5220148;28;20544;-50
2022/07/19 00:45:44;;;;;;;5.30;4.80;;;19.70;56.10;;;;;;5224362;28;20572;-50
2022/07/19 00:48:14;;;;;;;9.30;5.20;;;19.70;55.70;;;;;;5222878;28;21293;-51
2022/07/19 00:50:45;;;;;;;5.63;4.53;;;19.70;55.40;;;;;;5222223;28;20209;-50
2022/07/19 00:53:17;;;;;;;8.53;4.40;;;19.70;55.40;;;;;;5217952;28;20193;-49
2022/07/19 00:55:48;;;;;;;5.57;4.43;;;19.70;55.60;;;;;;5190068;28;20206;-51
2022/07/19 00:58:20;;;;;;;6.00;4.57;;;19.60;55.70;;;;;;5215598;28;20441;-49
2022/07/19 01:00:51;;;;;;;4.53;4.13;;;19.60;55.80;;;;;;5222884;28;20870;-50
2022/07/19 01:03:22;;;;;;;6.27;5.10;;;19.60;55.90;;;;;;5211533;28;20508;-50
2022/07/19 01:05:53;;;;;;;8.20;4.60;;;19.50;55.90;;;;;;5225809;28;20507;-51
2022/07/19 01:08:24;;;;;;;9.00;5.40;;;19.50;56.10;;;;;;5212225;28;20465;-53
2022/07/19 01:10:54;;;;;;;10.13;4.70;;;19.50;56.10;;;;;;5199057;28;20207;-51
2022/07/19 01:13:25;;;;;;;6.17;4.70;;;19.40;56.10;;;;;;5210126;28;20243;-50
2022/07/19 01:15:56;;;;;;;4.97;4.07;;;19.40;56.00;;;;;;5222759;28;20281;-50
2022/07/19 01:18:26;;;;;;;4.37;3.93;;;19.40;55.80;;;;;;5226279;28;20658;-51
2022/07/19 01:20:58;;;;;;;16.73;5.00;;;19.40;55.80;;;;;;5199959;28;20233;-51
2022/07/19 01:23:28;;;;;;;4.10;3.80;;;19.40;55.70;;;;;;5201573;28;20180;-51
2022/07/19 01:25:59;;;;;;;4.17;3.77;;;19.40;55.70;;;;;;5215560;28;20442;-51
2022/07/19 01:28:29;;;;;;;7.70;4.77;;;19.30;55.50;;;;;;5222878;28;20567;-51
2022/07/19 01:31:00;;;;;;;7.33;4.10;;;19.30;55.70;;;;;;5207414;28;20195;-50
2022/07/19 01:33:30;;;;;;;4.00;3.70;;;19.30;55.50;;;;;;5197243;28;20175;-50
2022/07/19 01:36:01;;;;;;;4.60;4.20;;;19.30;55.80;;;;;;5225249;28;20516;-51
2022/07/19 01:38:32;;;;;;;6.77;3.67;;;19.30;55.50;;;;;;5211709;28;20187;-49
2022/07/19 01:41:02;;;;;;;6.80;4.90;;;19.30;55.40;;;;;;5217779;28;20222;-51
2022/07/19 01:43:33;;;;;;;8.70;4.93;;;19.30;55.30;;;;;;5204181;28;20191;-48
2022/07/19 01:46:04;;;;;;;3.73;3.37;;;19.20;55.60;;;;;;5213098;28;20246;-49
2022/07/19 01:48:35;;;;;;;6.27;3.60;;;19.20;55.60;;;;;;5225333;28;20833;-51
2022/07/19 01:51:06;;;;;;;5.57;4.50;;;19.20;55.50;;;;;;5222516;28;20741;-51
2022/07/19 01:53:36;;;;;;;6.23;4.60;;;19.20;55.30;;;;;;5211260;28;20437;-50
2022/07/19 01:56:07;;;;;;;5.27;3.77;;;19.20;55.50;;;;;;5223238;28;20451;-50
2022/07/19 01:58:38;;;;;;;6.80;4.30;;;19.20;55.40;;;;;;5218681;28;20579;-49
2022/07/19 02:01:08;;;;;;;4.10;3.50;;;19.10;55.40;;;;;;5209727;28;20251;-50
2022/07/19 02:03:39;;;;;;;5.03;4.53;;;19.10;55.40;;;;;;5206685;28;20183;-49
2022/07/19 02:06:09;;;;;;;7.77;4.17;;;19.10;55.60;;;;;;5199642;28;20187;-50
2022/07/19 02:08:41;;;;;;;3.90;3.67;;;19.10;55.60;;;;;;5223273;28;20583;-50
2022/07/19 02:14:06;;;;;;;6.33;3.53;;;19.00;56.00;;;;;;5209573;28;20471;-49
2022/07/19 02:16:38;;;;;;;4.10;3.80;;;19.00;55.90;;;;;;5211113;28;20850;-49
2022/07/19 02:19:08;;;;;;;8.70;4.43;;;19.00;56.00;;;;;;5200122;28;20513;-50
2022/07/19 02:21:39;;;;;;;4.10;3.73;;;19.00;56.10;;;;;;5200356;28;20532;-49
2022/07/19 02:24:10;;;;;;;6.40;4.10;;;18.90;56.30;;;;;;5207886;28;20183;-50
2022/07/19 02:26:40;;;;;;;6.03;4.10;;;18.90;56.40;;;;;;5209930;28;20220;-49
2022/07/19 02:29:11;;;;;;;6.63;4.33;;;18.90;56.50;;;;;;5197213;28;20211;-49
2022/07/19 02:31:41;;;;;;;4.73;3.90;;;18.90;56.50;;;;;;5211532;28;20196;-48
2022/07/19 02:34:12;;;;;;;6.80;4.10;;;18.90;56.70;;;;;;5200002;28;20631;-51
2022/07/19 02:36:43;;;;;;;5.03;3.90;;;18.90;56.80;;;;;;5223469;28;20491;-49
2022/07/19 02:39:14;;;;;;;4.10;3.80;;;18.90;56.70;;;;;;5196024;28;20189;-50
2022/07/19 02:41:45;;;;;;;4.90;3.90;;;18.90;56.90;;;;;;5215256;28;20465;-50
2022/07/19 02:44:15;;;;;;;4.43;4.03;;;18.80;56.90;;;;;;5214715;28;20666;-49
2022/07/19 02:46:46;;;;;;;7.53;4.30;;;18.80;57.10;;;;;;5206979;28;20190;-50
2022/07/19 02:49:16;;;;;;;3.97;3.23;;;18.70;57.10;;;;;;5218362;28;20226;-50
2022/07/19 02:51:47;;;;;;;5.60;4.23;;;18.70;57.20;;;;;;5181775;28;20217;-50
2022/07/19 02:54:18;;;;;;;6.63;4.30;;;18.60;57.30;;;;;;5218988;28;20183;-50
2022/07/19 02:56:49;;;;;;;3.80;3.47;;;18.60;57.70;;;;;;5204361;28;20203;-50
2022/07/19 02:59:19;;;;;;;5.13;4.37;;;18.60;57.80;;;;;;5213472;28;20190;-50
2022/07/19 03:01:50;;;;;;;6.10;4.33;;;18.60;58.00;;;;;;5216091;28;20208;-50
2022/07/19 03:04:20;;;;;;;4.37;3.97;;;18.50;58.00;;;;;;5206122;28;20187;-50
2022/07/19 03:06:51;;;;;;;6.53;3.97;;;18.50;58.20;;;;;;5221786;28;20197;-50
2022/07/19 03:09:22;;;;;;;3.50;2.80;;;18.50;58.20;;;;;;5184657;28;20207;-51
2022/07/19 03:11:52;;;;;;;9.83;4.00;;;18.50;58.30;;;;;;5199587;28;20280;-50
2022/07/19 03:14:23;;;;;;;7.63;3.60;;;18.50;58.30;;;;;;5210138;28;20214;-49
2022/07/19 03:16:53;;;;;;;3.83;3.27;;;18.50;58.70;;;;;;5202145;28;20286;-49
2022/07/19 03:19:26;;;;;;;9.43;4.50;;;18.50;58.60;;;;;;5206224;28;20171;-50
2022/07/19 03:21:57;;;;;;;5.13;3.40;;;18.50;58.80;;;;;;5204288;28;20261;-51
2022/07/19 03:24:27;;;;;;;7.60;3.93;;;18.50;58.90;;;;;;5208533;28;20473;-50
2022/07/19 03:26:58;;;;;;;7.13;3.97;;;18.50;59.10;;;;;;5219874;28;20198;-50
2022/07/19 03:29:28;;;;;;;5.43;4.40;;;18.50;59.00;;;;;;5228999;28;20317;-52
2022/07/19 03:31:59;;;;;;;6.63;4.53;;;18.50;59.10;;;;;;5205177;28;20203;-50
2022/07/19 03:34:30;;;;;;;5.43;4.07;;;18.50;59.10;;;;;;5223895;28;20597;-50
2022/07/19 03:37:00;;;;;;;8.10;4.80;;;18.60;59.30;;;;;;5209609;28;20258;-50
2022/07/19 03:39:31;;;;;;;3.77;3.57;;;18.50;59.40;;;;;;5223840;28;20189;-51
2022/07/19 03:42:01;;;;;;;5.83;4.43;;;18.60;59.60;;;;;;5216814;22;20334;-47
2022/07/19 03:44:32;;;;;;;4.63;4.37;;;18.60;59.70;;;;;;5226390;28;20182;-47
2022/07/19 03:47:03;;;;;;;5.77;3.57;;;18.70;59.80;;;;;;5218934;28;20193;-46
2022/07/19 03:49:34;;;;;;;7.17;4.40;;;18.70;59.80;;;;;;5229355;28;20976;-47
2022/07/19 03:52:04;;;;;;;5.00;4.47;;;18.70;59.90;;;;;;5224531;28;20231;-47
2022/07/19 03:54:35;;;;;;;5.30;3.77;;;18.70;59.90;;;;;;5208544;28;20179;-48
2022/07/19 03:57:06;;;;;;;4.90;4.17;;;18.70;59.70;;;;;;5210520;28;20179;-47
2022/07/19 03:59:36;;;;;;;4.57;4.10;;;18.80;59.70;;;;;;5214901;28;20194;-47
2022/07/19 04:02:07;;;;;;;5.93;4.80;;;18.80;59.70;;;;;;5214619;28;20621;-47
2022/07/19 04:04:37;;;;;;;5.40;4.30;;;18.90;59.80;;;;;;5226263;28;20278;-48
2022/07/19 04:07:08;;;;;;;4.50;4.10;;;18.90;59.90;;;;;;5195842;28;20188;-48
2022/07/19 04:09:38;;;;;;;21.37;4.27;;;19.00;60.40;;;;;;5216350;28;20221;-47
2022/07/19 04:12:09;;;;;;;10.00;4.37;;;19.00;60.10;;;;;;5217747;28;20227;-47
2022/07/19 04:14:40;;;;;;;6.67;4.47;;;19.10;59.90;;;;;;5215730;28;20191;-47
2022/07/19 04:17:10;;;;;;;3.90;3.53;;;19.20;60.00;;;;;;5211296;28;20210;-47
2022/07/19 04:19:41;;;;;;;6.70;4.63;;;19.20;60.00;;;;;;5213224;28;20183;-50
2022/07/19 04:22:11;;;;;;;5.03;4.10;;;19.30;60.00;;;;;;5207539;28;20211;-49
2022/07/19 04:24:42;;;;;;;3.93;3.50;;;19.40;60.20;;;;;;5203552;28;20651;-48
2022/07/19 04:27:12;;;;;;;4.70;3.40;;;19.60;60.50;;;;;;5209265;28;20492;-47
2022/07/19 04:29:43;;;;;;;5.17;4.60;;;19.70;60.60;;;;;;5225414;28;20222;-47
2022/07/19 04:32:14;;;;;;;6.47;4.80;;;19.80;60.90;;;;;;5223970;28;20667;-48
2022/07/19 04:34:45;;;;;;;3.87;3.47;;;20.00;61.00;;;;;;5214719;28;20652;-49
2022/07/19 04:37:16;;;;;;;8.17;4.93;;;20.00;60.00;;;;;;5211061;28;20445;-48
2022/07/19 04:39:46;;;;;;;12.50;4.97;;;20.10;60.00;;;;;;5202283;28;20191;-48
2022/07/19 04:42:17;;;;;;;4.80;3.60;;;20.10;60.00;;;;;;5200140;28;20584;-47
2022/07/19 04:44:49;;;;;;;6.30;3.60;;;20.20;59.80;;;;;;5223219;28;20243;-47
2022/07/19 04:47:19;;;;;;;6.40;4.27;;;20.30;59.80;;;;;;5215399;28;20927;-50
2022/07/19 04:49:50;;;;;;;13.47;4.30;;;20.30;59.90;;;;;;5215308;28;20304;-48
2022/07/19 04:52:21;;;;;;;10.17;4.20;;;20.40;59.80;;;;;;5212390;28;20207;-48
2022/07/19 04:54:51;;;;;;;8.40;5.00;;;20.60;59.80;;;;;;5217281;28;20273;-48
2022/07/19 04:57:22;;;;;;;5.80;4.10;;;21.10;59.80;;;;;;5199059;28;20207;-50
2022/07/19 04:59:52;;;;;;;4.13;3.73;;;21.80;58.90;;;;;;5219563;28;20535;-48
2022/07/19 05:02:23;;;;;;;8.00;4.10;;;22.40;57.60;;;;;;5178937;28;20208;-48
2022/07/19 05:04:53;;;;;;;5.80;4.30;;;23.10;56.20;;;;;;5204155;28;20552;-54
2022/07/19 05:07:24;;;;;;;6.40;4.57;;;23.60;54.50;;;;;;5219665;28;20207;-49
2022/07/19 05:09:55;;;;;;;4.43;4.03;;;24.20;53.60;;;;;;5197162;28;20194;-49
2022/07/19 05:12:25;;;;;;;4.90;4.50;;;24.70;52.70;;;;;;5214971;28;20202;-51
2022/07/19 05:14:56;;;;;;;6.00;4.10;;;25.40;50.60;;;;;;5205975;28;20180;-48
2022/07/19 05:17:27;;;;;;;4.27;3.63;;;26.10;48.00;;;;;;5186715;28;20179;-48
2022/07/19 05:19:57;;;;;;;7.67;3.83;;;27.20;45.00;;;;;;5199605;28;20186;-48
2022/07/19 05:22:28;;;;;;;4.97;3.20;;;28.00;44.40;;;;;;5201493;28;20203;-50
2022/07/19 05:24:58;;;;;;;5.67;3.77;;;28.80;43.40;;;;;;5199919;28;20194;-49
2022/07/19 05:27:30;;;;;;;5.93;3.60;;;29.80;41.50;;;;;;5188016;28;20197;-48
2022/07/19 05:30:01;;;;;;;5.40;3.37;;;30.60;39.40;;;;;;5221362;28;20225;-51
2022/07/19 05:32:32;;;;;;;8.57;4.43;;;31.50;37.60;;;;;;5208687;28;20283;-48
2022/07/19 05:35:03;;;;;;;4.57;3.65;;;32.60;35.20;;;;;;5216381;28;20642;-52
2022/07/19 05:37:34;;;;;;;6.72;2.85;;;33.80;34.10;;;;;;5216206;28;20650;-53
2022/07/19 05:40:05;;;;;;;7.47;4.57;;;35.30;31.80;;;;;;5211525;28;20179;-47
2022/07/19 05:42:36;;;;;;;4.53;3.33;;;36.40;29.80;;;;;;5206064;28;20238;-51
2022/07/19 05:45:07;;;;;;;4.13;3.83;;;37.10;28.50;;;;;;5207846;28;20178;-53
2022/07/19 05:47:37;;;;;;;4.30;2.65;;;37.80;27.80;;;;;;5216010;28;20213;-51
2022/07/19 05:50:08;;;;;;;3.75;3.45;;;38.60;27.40;;;;;;5218206;28;20175;-51
2022/07/19 05:52:39;;;;;;;2.72;2.58;;;39.30;26.50;;;;;;5202844;28;20209;-51
2022/07/19 05:55:09;;;;;;;8.32;4.07;;;39.80;25.90;;;;;;5176727;28;20281;-50
2022/07/19 05:57:40;;;;;;;8.77;3.67;;;40.10;25.00;;;;;;5202896;28;20654;-51
2022/07/19 06:00:11;;;;;;;5.75;3.13;;;40.30;25.00;;;;;;5214360;28;20179;-51
2022/07/19 06:02:41;;;;;;;6.40;3.53;;;40.50;24.20;;;;;;5213166;28;20221;-52
2022/07/19 06:05:12;;;;;;;4.97;3.35;;;40.50;23.30;;;;;;5214843;28;20187;-52
2022/07/19 06:07:42;;;;;;;3.35;3.05;;;40.10;23.40;;;;;;5205880;28;20605;-53
2022/07/19 06:10:13;;;;;;;11.98;3.30;;;39.70;24.20;;;;;;5187756;28;20204;-50
2022/07/19 06:12:44;;;;;;;4.88;3.20;;;40.10;24.00;;;;;;5207458;28;20646;-51
2022/07/19 06:15:14;;;;;;;5.75;3.30;;;40.60;23.90;;;;;;5206349;28;20182;-50
2022/07/19 06:17:45;;;;;;;4.32;2.85;;;40.90;23.60;;;;;;5201007;28;20206;-48
2022/07/19 06:20:15;;;;;;;5.97;3.78;;;41.00;23.30;;;;;;5207630;28;20194;-49
2022/07/19 06:22:46;;;;;;;9.18;3.42;;;41.40;22.90;;;;;;5213117;28;20577;-53
2022/07/19 06:25:17;;;;;;;3.38;3.08;;;41.90;22.50;;;;;;5213663;28;20190;-51
2022/07/19 06:27:47;;;;;;;3.20;2.47;;;42.20;21.90;;;;;;5211475;28;20248;-49
2022/07/19 06:30:18;;;;;;;6.95;2.38;;;42.10;21.50;;;;;;5214016;28;20636;-51
2022/07/19 06:32:48;;;;;;;3.63;3.03;;;42.00;21.70;;;;;;5209785;28;20218;-53
2022/07/19 06:35:19;;;;;;;2.75;2.22;;;42.20;21.80;;;;;;5202120;28;20193;-51
2022/07/19 06:37:50;;;;;;;12.18;3.08;;;42.60;21.40;;;;;;5215119;28;20546;-51
2022/07/19 06:40:20;;;;;;;2.58;2.47;;;42.80;21.10;;;;;;5200445;28;20634;-54
2022/07/19 06:42:51;;;;;;;2.40;2.20;;;42.90;20.90;;;;;;5211664;28;20238;-50
2022/07/19 06:45:22;;;;;;;2.47;2.30;;;42.90;21.10;;;;;;5203295;28;20276;-52
2022/07/19 06:47:52;;;;;;;3.08;2.88;;;43.30;20.70;;;;;;5214875;28;20209;-52
2022/07/19 06:50:23;;;;;;;4.93;2.63;;;43.40;20.60;;;;;;5215947;28;20761;-50
2022/07/19 06:52:54;;;;;;;6.85;2.70;;;43.60;20.60;;;;;;5210765;28;20212;-51
2022/07/19 06:55:25;;;;;;;9.25;3.30;;;44.10;20.30;;;;;;5212427;28;20202;-51
2022/07/19 06:57:56;;;;;;;6.45;2.55;;;43.80;19.90;;;;;;5197707;28;20195;-51
2022/07/19 07:00:26;;;;;;;6.00;3.40;;;43.80;20.30;;;;;;5217657;28;20219;-52
2022/07/19 07:02:57;;;;;;;11.27;2.67;;;43.70;20.20;;;;;;5215431;28;20265;-52
2022/07/19 07:05:28;;;;;;;9.10;4.95;;;43.40;20.00;;;;;;5196765;28;20195;-54
2022/07/19 07:07:58;;;;;;;3.20;2.78;;;43.40;20.20;;;;;;5210996;28;20714;-52
2022/07/19 07:10:29;;;;;;;4.05;2.60;;;43.00;20.10;;;;;;5205940;28;20262;-52
2022/07/19 07:13:00;;;;;;;2.83;2.60;;;42.90;20.30;;;;;;5192121;28;20222;-52
2022/07/19 07:15:31;;;;;;;2.15;2.15;;;43.60;20.30;;;;;;5215417;28;20757;-56
2022/07/19 07:18:02;;;;;;;4.85;3.22;;;44.30;20.00;;;;;;5195541;28;20236;-51
2022/07/19 07:20:34;;;;;;;7.75;4.72;;;45.20;19.40;;;;;;5209930;28;20191;-51
2022/07/19 07:23:04;;;;;;;6.05;3.33;;;45.20;19.20;;;;;;5186177;28;20197;-51
2022/07/19 07:25:35;;;;;;;11.20;2.92;;;44.70;19.10;;;;;;5199131;28;20174;-51
2022/07/19 07:28:06;;;;;;;6.80;2.90;;;44.50;19.40;;;;;;5219399;28;20221;-53
2022/07/19 07:30:36;;;;;;;4.57;2.75;;;44.60;19.20;;;;;;5214291;28;20262;-51
2022/07/19 07:33:07;;;;;;;4.43;2.78;;;44.20;19.30;;;;;;5216459;28;20190;-49
2022/07/19 07:35:37;;;;;;;4.00;2.70;;;44.20;19.40;;;;;;5189961;28;20175;-52
2022/07/19 07:38:08;;;;;;;5.93;2.95;;;44.10;19.20;;;;;;5197096;28;20663;-52
2022/07/19 07:40:38;;;;;;;4.72;2.70;;;44.50;19.40;;;;;;5198265;28;20551;-54
2022/07/19 07:43:09;;;;;;;6.55;2.80;;;44.70;18.90;;;;;;5215921;28;20689;-51
2022/07/19 07:45:40;;;;;;;4.82;2.88;;;45.00;19.00;;;;;;5209860;28;20193;-52
2022/07/19 07:48:10;;;;;;;3.17;2.13;;;45.60;18.30;;;;;;5216586;28;20218;-53
2022/07/19 07:50:41;;;;;;;5.43;2.72;;;45.90;18.10;;;;;;5216517;28;20205;-50
2022/07/19 07:53:11;;;;;;;8.13;3.33;;;45.90;18.40;;;;;;5210135;28;20202;-50
2022/07/19 07:55:42;;;;;;;5.65;2.80;;;45.80;17.90;;;;;;5209198;28;20646;-57
2022/07/19 07:58:13;;;;;;;5.65;2.97;;;45.10;17.80;;;;;;5205270;28;20663;-53
2022/07/19 08:00:43;;;;;;;3.30;2.33;;;44.00;18.60;;;;;;5191544;28;20190;-51
2022/07/19 08:03:16;;;;;;;7.50;3.50;;;43.40;19.00;;;;;;5213806;28;20198;-52
2022/07/19 08:05:48;;;;;;;3.03;2.25;;;43.50;19.50;;;;;;5218746;28;20654;-51
2022/07/19 08:08:18;;;;;;;4.65;3.45;;;42.80;19.80;;;;;;5201241;28;20206;-51
2022/07/19 08:10:49;;;;;;;6.32;3.05;;;41.80;19.90;;;;;;5200471;28;20214;-50
2022/07/19 08:13:20;;;;;;;5.05;3.03;;;41.10;20.30;;;;;;5205164;28;20580;-51
2022/07/19 08:15:51;;;;;;;2.33;1.80;;;40.50;20.70;;;;;;5199732;28;20735;-50
2022/07/19 08:18:21;;;;;;;2.75;2.03;;;41.00;20.80;;;;;;5219568;28;20272;-50
2022/07/19 08:20:52;;;;;;;5.32;2.30;;;42.10;20.30;;;;;;5218326;28;20214;-50
2022/07/19 08:23:22;;;;;;;3.58;2.42;;;42.30;19.90;;;;;;5195129;28;20560;-49
2022/07/19 08:25:53;;;;;;;4.65;2.40;;;42.50;20.10;;;;;;5206790;28;20558;-49
2022/07/19 08:28:23;;;;;;;4.43;2.63;;;43.20;19.70;;;;;;5199881;28;20187;-49
2022/07/19 08:30:54;;;;;;;2.50;1.77;;;43.30;19.00;;;;;;5197640;28;20294;-49
2022/07/19 08:33:25;;;;;;;5.18;2.95;;;43.10;19.40;;;;;;5213670;28;20263;-51
2022/07/19 08:35:55;;;;;;;4.95;1.95;;;43.30;19.40;;;;;;5213868;28;20187;-50
2022/07/19 08:38:26;;;;;;;2.90;2.33;;;43.90;19.60;;;;;;5201656;28;20328;-51
2022/07/19 08:40:57;;;;;;;8.40;2.42;;;43.70;19.50;;;;;;5196957;28;20218;-50
2022/07/19 08:43:28;;;;;;;2.70;1.90;;;43.20;19.10;;;;;;5201721;28;20201;-50
2022/07/19 08:46:01;;;;;;;2.92;2.08;;;42.10;20.00;;;;;;5212079;28;20183;-51
2022/07/19 08:48:36;;;;;;;6.10;2.20;;;42.20;19.80;;;;;;5213877;28;20198;-48
2022/07/19 08:51:07;;;;;;;3.97;2.50;;;42.20;20.20;;;;;;5202984;28;20236;-48
2022/07/19 08:53:40;;;;;;;3.28;2.28;;;42.70;19.90;;;;;;5199294;28;20257;-48
2022/07/19 08:59:00;;;;;;;10.95;1.98;;;40.00;21.10;;;;;;5226516;28;20201;-47
2022/07/19 09:01:31;;;;;;;10.65;2.45;;;38.00;23.30;;;;;;5184254;28;20198;-52
2022/07/19 09:04:14;;;;;;;8.82;2.42;;;36.50;24.00;;;;;;5218871;28;20619;-48
2022/07/19 09:06:46;;;;;;;4.38;2.22;;;35.40;25.30;;;;;;5201109;28;20651;-47
2022/07/19 09:09:25;;;;;;;2.20;2.10;;;34.40;26.00;;;;;;5210853;28;20305;-51
2022/07/19 09:11:56;;;;;;;2.63;1.70;;;33.50;26.70;;;;;;5200355;28;20209;-48
2022/07/19 09:14:34;;;;;;;1.98;1.60;;;33.10;27.60;;;;;;5201889;28;20512;-48
2022/07/19 09:17:12;;;;;;;2.70;2.23;;;33.00;28.10;;;;;;5199955;28;20304;-47
2022/07/19 09:19:44;;;;;;;3.13;2.10;;;33.00;28.30;;;;;;5201869;28;20285;-48
2022/07/19 09:22:18;;;;;;;8.80;2.53;;;32.80;27.20;;;;;;5211975;28;20229;-48
2022/07/19 09:24:50;;;;;;;4.53;2.23;;;32.80;27.20;;;;;;5203127;28;20191;-48
2022/07/19 09:27:23;;;;;;;2.70;2.47;;;32.70;27.20;;;;;;5213705;28;23800;-50
2022/07/19 09:29:56;;;;;;;3.37;2.10;;;32.70;27.60;;;;;;5217534;28;20202;-56
2022/07/19 09:32:27;;;;;;;3.00;1.87;;;32.60;27.20;;;;;;5197883;28;20207;-47
2022/07/19 09:35:03;;;;;;;1.90;1.80;;;32.60;27.90;;;;;;5197387;28;20693;-48
2022/07/19 09:37:34;;;;;;;2.67;2.00;;;32.70;28.00;;;;;;5202785;28;20610;-50
2022/07/19 09:40:08;;;;;;;6.97;2.47;;;32.70;27.50;;;;;;5213916;28;20199;-47
2022/07/19 09:42:42;;;;;;;1.30;1.30;;;32.70;27.80;;;;;;5216848;28;20226;-50
2022/07/19 09:45:15;;;;;;;1.70;1.60;;;32.60;28.10;;;;;;5217492;28;20177;-47
2022/07/19 09:47:47;;;;;;;3.20;2.20;;;32.40;27.50;;;;;;5200871;28;20537;-46
2022/07/19 09:50:21;;;;;;;2.40;2.20;;;32.20;28.20;;;;;;5197752;28;20247;-46
2022/07/19 09:52:52;;;;;;;2.17;2.00;;;32.20;27.70;;;;;;5215497;28;20471;-49
2022/07/19 09:55:24;;;;;;;2.27;2.17;;;32.00;28.10;;;;;;5220999;28;20443;-47
2022/07/19 09:57:57;;;;;;;3.40;1.60;;;31.90;27.90;;;;;;5203615;28;20191;-47
2022/07/19 10:00:27;;;;;;;3.70;3.23;;;31.90;27.60;;;;;;5220081;28;20199;-47
2022/07/19 10:03:00;;;;;;;6.03;3.20;;;31.80;27.50;;;;;;5203270;28;20444;-49
2022/07/19 10:05:31;;;;;;;2.57;2.33;;;31.70;27.50;;;;;;5216446;28;20263;-46
2022/07/19 10:08:02;;;;;;;1.50;1.50;;;31.70;27.70;;;;;;5202267;28;20518;-47
2022/07/19 10:10:33;;;;;;;6.43;2.03;;;31.60;27.40;;;;;;5216870;28;20591;-47
2022/07/19 10:13:05;;;;;;;4.53;2.20;;;31.70;27.80;;;;;;5213963;28;20240;-48
2022/07/19 10:15:41;;;;;;;4.43;2.00;;;31.70;27.10;;;;;;5219526;28;20182;-49
2022/07/19 10:18:16;;;;;;;29.00;2.97;;;31.80;27.60;;;;;;5222926;28;20881;-48
2022/07/19 10:20:48;;;;;;;7.27;3.00;;;31.90;27.90;;;;;;5206991;28;20836;-47
2022/07/19 10:23:31;;;;;;;1.60;1.60;;;31.80;27.50;;;;;;5205204;28;20449;-49
2022/07/19 10:26:02;;;;;;;3.33;1.80;;;31.70;27.60;;;;;;5225444;28;20186;-50
2022/07/19 10:28:37;;;;;;;4.73;1.70;;;31.80;27.70;;;;;;5224838;28;20210;-47
2022/07/19 10:31:30;;;;;;;4.53;2.17;;;31.80;27.60;;;;;;5223244;28;20821;-47
2022/07/19 10:34:06;;;;;;;2.40;1.87;;;31.90;27.10;;;;;;5202186;28;20437;-51
2022/07/19 10:36:42;;;;;;;1.60;1.60;;;31.90;26.70;;;;;;5205462;28;20182;-50
2022/07/19 10:39:35;;;;;;;9.13;1.60;;;32.00;26.20;;;;;;5221348;28;20182;-47
2022/07/19 10:42:20;;;;;;;5.50;1.90;;;32.00;26.40;;;;;;5198443;28;20219;-49
2022/07/19 10:44:57;;;;;;;1.63;1.53;;;32.00;26.00;;;;;;5190947;28;20851;-47
2022/07/19 10:47:37;;;;;;;3.03;2.20;;;32.00;26.40;;;;;;5205051;28;20183;-47
2022/07/19 10:50:15;;;;;;;1.97;1.80;;;32.10;26.30;;;;;;5203934;28;20201;-48
2022/07/19 10:52:47;;;;;;;2.30;2.10;;;32.10;26.30;;;;;;5195781;28;20209;-48
2022/07/19 10:55:22;;;;;;;1.80;1.70;;;32.10;26.30;;;;;;5185418;28;24477;-55
2022/07/19 10:58:05;;;;;;;1.60;1.50;;;32.20;26.20;;;;;;5214511;28;21773;-47
2022/07/19 11:00:43;;;;;;;1.70;1.60;;;32.30;26.20;;;;;;5203400;28;20549;-47
2022/07/19 11:03:23;;;;;;;3.83;2.23;;;32.30;26.30;;;;;;5197052;28;20177;-48
2022/07/19 11:05:56;;;;;;;2.00;1.90;;;32.40;26.40;;;;;;5215527;28;20185;-48
2022/07/19 11:08:39;;;;;;;2.10;2.00;;;32.40;26.50;;;;;;5214038;28;20199;-48
2022/07/19 11:11:18;;;;;;;1.90;1.80;;;32.60;27.10;;;;;;5203692;28;20205;-47
2022/07/19 11:13:51;;;;;;;11.73;2.00;;;32.70;26.60;;;;;;5201967;28;20927;-48
2022/07/19 11:16:25;;;;;;;2.23;2.03;;;32.50;26.10;;;;;;5217448;28;20197;-48
2022/07/19 11:19:07;;;;;;;2.50;2.40;;;32.30;26.40;;;;;;5200128;28;20198;-46
2022/07/19 11:21:38;;;;;;;2.40;2.30;;;32.30;26.30;;;;;;5196870;28;20210;-50
2022/07/19 11:24:09;;;;;;;6.47;2.50;;;32.10;26.30;;;;;;5212915;28;20236;-45
2022/07/19 11:26:40;;;;;;;4.07;1.80;;;32.30;27.00;;;;;;5208685;28;20191;-51
2022/07/19 11:29:10;;;;;;;11.40;6.17;;;32.30;26.20;;;;;;5212482;28;20206;-49
2022/07/19 11:31:48;;;;;;;2.30;2.17;;;32.40;26.20;;;;;;5215519;28;20203;-48
2022/07/19 11:34:21;;;;;;;1.60;1.60;;;32.40;25.30;;;;;;5209781;28;20249;-51
2022/07/19 11:36:58;;;;;;;2.43;2.33;;;32.40;25.60;;;;;;5213303;28;20174;-47
2022/07/19 11:39:49;;;;;;;3.17;2.30;;;32.40;25.50;;;;;;5218731;28;20240;-48
2022/07/19 11:42:37;;;;;;;2.93;2.30;;;32.60;25.40;;;;;;5210450;28;20639;-49
2022/07/19 11:45:18;;;;;;;2.13;2.03;;;32.70;25.50;;;;;;5211505;28;20193;-48
2022/07/19 11:47:55;;;;;;;2.20;2.10;;;32.90;25.70;;;;;;5224673;28;20651;-47
2022/07/19 11:50:27;;;;;;;2.93;2.30;;;33.00;25.50;;;;;;5215829;28;20190;-51
2022/07/19 11:52:59;;;;;;;2.20;1.93;;;33.00;25.70;;;;;;5206614;28;20205;-48
2022/07/19 11:55:40;;;;;;;6.40;2.30;;;32.80;25.30;;;;;;5216662;28;21124;-46
2022/07/19 11:58:10;;;;;;;4.13;2.27;;;32.70;25.00;;;;;;5205225;28;20197;-47
2022/07/19 12:00:43;;;;;;;5.67;2.00;;;32.70;25.40;;;;;;5217085;28;20191;-53
2022/07/19 12:03:18;;;;;;;2.70;2.60;;;32.70;25.30;;;;;;5206253;28;20554;-47
2022/07/19 12:05:58;;;;;;;2.80;2.30;;;32.90;25.30;;;;;;5222461;28;20276;-47
2022/07/19 12:08:33;;;;;;;8.80;3.53;;;33.00;25.30;;;;;;5221093;28;20677;-47
2022/07/19 12:11:24;;;;;;;2.67;2.40;;;33.40;25.20;;;;;;5201553;28;20678;-48
2022/07/19 12:13:57;;;;;;;6.10;2.20;;;33.50;24.90;;;;;;5201973;28;20179;-47
2022/07/19 12:16:29;;;;;;;2.83;1.87;;;33.40;24.20;;;;;;5208378;28;20182;-47
2022/07/19 12:19:00;;;;;;;4.80;2.23;;;33.20;24.30;;;;;;5219022;28;20193;-46
2022/07/19 12:21:40;;;;;;;1.57;1.47;;;33.10;24.70;;;;;;5186990;28;20199;-48
2022/07/19 12:24:18;;;;;;;2.20;2.10;;;33.10;24.30;;;;;;5203494;28;20182;-48
2022/07/19 12:26:55;;;;;;;1.90;1.83;;;33.20;24.00;;;;;;5189656;28;20183;-50
2022/07/19 12:29:41;;;;;;;5.73;3.67;;;33.20;24.10;;;;;;5204079;28;20202;-48
2022/07/19 12:32:26;;;;;;;8.33;3.80;;;33.30;24.50;;;;;;5203153;28;20206;-48
2022/07/19 12:35:11;;;;;;;2.60;2.40;;;33.30;24.40;;;;;;5198499;28;20202;-49
2022/07/19 12:37:46;;;;;;;1.97;1.87;;;33.30;23.70;;;;;;5205253;28;20179;-48
2022/07/19 12:40:22;;;;;;;4.57;2.33;;;33.40;24.20;;;;;;5205763;28;20181;-47
2022/07/19 12:43:02;;;;;;;2.07;1.93;;;33.60;23.50;;;;;;5214239;28;20297;-47
2022/07/19 12:45:35;;;;;;;10.70;2.17;;;33.50;23.30;;;;;;5221021;28;20265;-46
2022/07/19 12:48:07;;;;;;;3.33;2.67;;;33.50;23.30;;;;;;5216254;28;20190;-47
2022/07/19 12:50:45;;;;;;;2.80;2.60;;;33.40;23.50;;;;;;5216577;28;20178;-47
2022/07/19 12:53:17;;;;;;;2.40;2.20;;;33.20;23.20;;;;;;5204762;28;20597;-47
2022/07/19 12:55:49;;;;;;;3.57;3.20;;;33.20;23.50;;;;;;5199176;28;20175;-49
2022/07/19 13:01:12;;;;;;;2.53;2.20;;;33.20;23.90;;;;;;5215283;28;20294;-47
2022/07/19 13:03:42;;;;;;;2.63;2.53;;;33.40;23.60;;;;;;5194109;28;20278;-47
2022/07/19 13:06:13;;;;;;;2.77;2.57;;;33.30;23.50;;;;;;5198709;28;20282;-46
2022/07/19 13:08:44;;;;;;;2.60;2.40;;;33.30;23.40;;;;;;5191799;28;20301;-46
2022/07/19 13:11:14;;;;;;;7.80;2.40;;;33.20;23.30;;;;;;5206259;28;20244;-46
2022/07/19 13:13:45;;;;;;;2.10;2.00;;;33.20;23.40;;;;;;5214691;28;20265;-47
2022/07/19 13:16:15;;;;;;;2.70;2.53;;;33.30;23.40;;;;;;5203963;28;20619;-46
2022/07/19 13:18:47;;;;;;;5.33;3.10;;;33.30;23.70;;;;;;5204094;28;20233;-47